createdAt,value
2019-03-22T00:00:10.447Z,99440.16
2019-03-22T00:01:22.165Z,99433.66
2019-03-22T00:02:26.587Z,99428.77
2019-03-22T00:03:29.396Z,99431.45
2019-03-22T00:04:32.328Z,99435.80
2019-03-22T00:05:35.154Z,99435.80
2019-03-22T00:06:38.001Z,99429.33
2019-03-22T00:07:41.101Z,99429.84
2019-03-22T00:08:43.911Z,99428.47
2019-03-22T00:09:46.785Z,99429.02
2019-03-22T00:10:49.581Z,99433.61
2019-03-22T00:11:52.391Z,99424.70
2019-03-22T00:12:55.282Z,99424.70
2019-03-22T00:13:58.359Z,99426.36
2019-03-22T00:15:01.202Z,99426.36
2019-03-22T00:16:05.395Z,99425.30
2019-03-22T00:17:08.301Z,99422.01
2019-03-22T00:18:11.173Z,99423.34
2019-03-22T00:19:13.958Z,99418.20
2019-03-22T00:20:20.153Z,99423.35
2019-03-22T00:21:23.012Z,99421.22
2019-03-22T00:22:25.818Z,99424.14
2019-03-22T00:23:28.716Z,99423.91
2019-03-22T00:24:31.878Z,99423.91
2019-03-22T00:25:34.804Z,99418.25
2019-03-22T00:26:38.362Z,99415.83
2019-03-22T00:27:41.753Z,99415.83
2019-03-22T00:28:44.579Z,99412.59
2019-03-22T00:29:47.787Z,99408.26
2019-03-22T00:30:50.657Z,99410.97
2019-03-22T00:31:53.508Z,99409.09
2019-03-22T00:32:56.962Z,99405.02
2019-03-22T00:33:59.790Z,99404.20
2019-03-22T00:35:02.686Z,99404.20
2019-03-22T00:36:05.458Z,99406.11
2019-03-22T00:37:08.310Z,99406.11
2019-03-22T00:38:11.453Z,99408.53
2019-03-22T00:39:14.628Z,99402.05
2019-03-22T00:40:20.615Z,99406.63
2019-03-22T00:41:23.442Z,99406.63
2019-03-22T00:42:26.231Z,99406.63
2019-03-22T00:43:31.940Z,99410.41
2019-03-22T00:44:34.793Z,99410.14
2019-03-22T00:45:37.868Z,99411.77
2019-03-22T00:46:41.056Z,99410.97
2019-03-22T00:47:43.868Z,99410.41
2019-03-22T00:48:46.691Z,99413.13
2019-03-22T00:49:50.029Z,99408.27
2019-03-22T00:50:52.896Z,99408.53
2019-03-22T00:51:56.743Z,99410.41
2019-03-22T00:52:59.585Z,99407.70
2019-03-22T00:54:02.409Z,99407.70
2019-03-22T00:55:05.226Z,99403.41
2019-03-22T00:56:08.115Z,99404.20
2019-03-22T00:57:10.962Z,99404.20
2019-03-22T00:58:14.031Z,99399.28
2019-03-22T00:59:16.876Z,99404.96
2019-03-22T01:00:19.762Z,99402.17
2019-03-22T01:01:22.545Z,99403.49
2019-03-22T01:02:25.384Z,99401.33
2019-03-22T01:03:28.270Z,99404.57
2019-03-22T01:04:31.345Z,99404.57
2019-03-22T01:05:34.128Z,99405.97
2019-03-22T01:06:36.946Z,99398.41
2019-03-22T01:07:40.117Z,99409.78
2019-03-22T01:08:42.978Z,99406.52
2019-03-22T01:09:45.874Z,99407.09
2019-03-22T01:10:48.962Z,99408.73
2019-03-22T01:11:52.159Z,99408.73
2019-03-22T01:12:55.492Z,99403.59
2019-03-22T01:13:58.315Z,99406.01
2019-03-22T01:15:03.411Z,99406.01
2019-03-22T01:16:06.268Z,99401.19
2019-03-22T01:17:09.366Z,99401.19
2019-03-22T01:18:12.487Z,99401.19
2019-03-22T01:19:15.331Z,99399.02
2019-03-22T01:20:18.257Z,99399.28
2019-03-22T01:21:22.844Z,99399.57
2019-03-22T01:22:25.688Z,99400.66
2019-03-22T01:23:28.826Z,99401.21
2019-03-22T01:24:31.675Z,99401.21
2019-03-22T01:25:34.945Z,99397.16
2019-03-22T01:26:37.735Z,99397.16
2019-03-22T01:27:41.453Z,99394.66
2019-03-22T01:28:45.649Z,99395.73
2019-03-22T01:29:48.731Z,99395.73
2019-03-22T01:30:51.545Z,99396.28
2019-03-22T01:31:54.411Z,99396.28
2019-03-22T01:33:00.146Z,99395.42
2019-03-22T01:34:03.074Z,99396.14
2019-03-22T01:35:06.293Z,99396.33
2019-03-22T01:36:09.403Z,99396.33
2019-03-22T01:37:12.221Z,99396.28
2019-03-22T01:38:15.038Z,99403.53
2019-03-22T01:39:18.379Z,99397.02
2019-03-22T01:40:21.563Z,99391.55
2019-03-22T01:41:24.406Z,99399.16
2019-03-22T01:42:27.507Z,99398.09
2019-03-22T01:43:30.746Z,99401.94
2019-03-22T01:44:33.647Z,99401.94
2019-03-22T01:45:36.833Z,99403.84
2019-03-22T01:46:39.668Z,99403.00
2019-03-22T01:47:42.560Z,99401.64
2019-03-22T01:48:45.658Z,99399.70
2019-03-22T01:49:48.937Z,99392.34
2019-03-22T01:50:51.769Z,99386.86
2019-03-22T01:51:54.988Z,99386.86
2019-03-22T01:52:57.817Z,99395.05
2019-03-22T01:54:00.737Z,99401.00
2019-03-22T01:55:03.881Z,99400.86
2019-03-22T01:56:06.707Z,99398.91
2019-03-22T01:57:10.075Z,99403.71
2019-03-22T01:58:12.963Z,99402.05
2019-03-22T01:59:16.272Z,99405.22
2019-03-22T02:00:19.836Z,99404.36
2019-03-22T02:01:23.018Z,99401.67
2019-03-22T02:02:25.850Z,99400.31
2019-03-22T02:03:28.709Z,99404.16
2019-03-22T02:04:31.530Z,99401.59
2019-03-22T02:05:36.711Z,99401.59
2019-03-22T02:06:39.957Z,99403.02
2019-03-22T02:07:43.071Z,99400.93
2019-03-22T02:08:45.967Z,99400.05
2019-03-22T02:09:48.870Z,99404.15
2019-03-22T02:10:51.689Z,99402.88
2019-03-22T02:11:54.509Z,99402.88
2019-03-22T02:12:58.025Z,99393.20
2019-03-22T02:14:01.184Z,99395.64
2019-03-22T02:15:04.003Z,99397.25
2019-03-22T02:16:07.284Z,99397.25
2019-03-22T02:17:10.127Z,99394.23
2019-03-22T02:18:13.011Z,99396.06
2019-03-22T02:19:15.884Z,99393.16
2019-03-22T02:20:18.765Z,99396.56
2019-03-22T02:21:21.727Z,99396.02
2019-03-22T02:22:24.789Z,99390.65
2019-03-22T02:23:27.597Z,99393.72
2019-03-22T02:24:30.427Z,99393.72
2019-03-22T02:25:33.601Z,99388.11
2019-03-22T02:26:36.392Z,99389.48
2019-03-22T02:27:39.265Z,99393.83
2019-03-22T02:28:42.879Z,99388.13
2019-03-22T02:29:45.911Z,99388.13
2019-03-22T02:30:48.812Z,99392.16
2019-03-22T02:31:51.931Z,99387.27
2019-03-22T02:32:54.815Z,99386.73
2019-03-22T02:33:57.694Z,99386.73
2019-03-22T02:35:00.583Z,99386.46
2019-03-22T02:36:03.655Z,99388.02
2019-03-22T02:37:06.571Z,99390.63
2019-03-22T02:38:09.700Z,99390.63
2019-03-22T02:39:12.638Z,99387.12
2019-03-22T02:40:15.553Z,99387.61
2019-03-22T02:41:18.769Z,99382.73
2019-03-22T02:42:21.606Z,99386.54
2019-03-22T02:43:24.428Z,99383.52
2019-03-22T02:44:27.611Z,99385.42
2019-03-22T02:45:30.501Z,99383.00
2019-03-22T02:46:33.367Z,99383.17
2019-03-22T02:47:36.142Z,99379.92
2019-03-22T02:48:38.963Z,99378.66
2019-03-22T02:49:41.797Z,99377.08
2019-03-22T02:50:45.402Z,99367.33
2019-03-22T02:51:48.237Z,99378.27
2019-03-22T02:52:51.058Z,99368.44
2019-03-22T02:53:53.861Z,99363.53
2019-03-22T02:54:56.973Z,99372.75
2019-03-22T02:55:59.967Z,99372.75
2019-03-22T02:57:03.251Z,99374.25
2019-03-22T02:58:19.822Z,99376.72
2019-03-22T02:59:10.964Z,99375.36
2019-03-22T03:00:13.976Z,99370.23
2019-03-22T03:01:16.859Z,99380.16
2019-03-22T03:02:19.696Z,99380.16
2019-03-22T03:03:23.266Z,99378.03
2019-03-22T03:04:26.093Z,99381.02
2019-03-22T03:05:28.884Z,99381.02
2019-03-22T03:06:31.796Z,99370.89
2019-03-22T03:07:34.614Z,99382.08
2019-03-22T03:08:37.398Z,99384.06
2019-03-22T03:09:40.608Z,99384.06
2019-03-22T03:10:43.429Z,99375.45
2019-03-22T03:11:46.324Z,99380.66
2019-03-22T03:12:49.192Z,99380.66
2019-03-22T03:13:52.533Z,99370.70
2019-03-22T03:14:55.378Z,99368.11
2019-03-22T03:15:58.499Z,99366.90
2019-03-22T03:17:01.296Z,99370.52
2019-03-22T03:18:04.169Z,99361.34
2019-03-22T03:19:07.025Z,99361.34
2019-03-22T03:20:09.794Z,99368.01
2019-03-22T03:21:12.775Z,99367.70
2019-03-22T03:22:15.928Z,99370.67
2019-03-22T03:23:18.797Z,99371.20
2019-03-22T03:24:21.725Z,99367.91
2019-03-22T03:25:24.519Z,99367.91
2019-03-22T03:26:27.639Z,99371.00
2019-03-22T03:27:30.482Z,99377.34
2019-03-22T03:28:37.155Z,99373.19
2019-03-22T03:29:38.577Z,99375.06
2019-03-22T03:30:41.786Z,99376.45
2019-03-22T03:31:45.037Z,99365.53
2019-03-22T03:32:47.850Z,99365.53
2019-03-22T03:33:50.733Z,99366.98
2019-03-22T03:34:53.854Z,99356.25
2019-03-22T03:35:59.073Z,99362.20
2019-03-22T03:37:01.911Z,99362.94
2019-03-22T03:38:04.742Z,99362.94
2019-03-22T03:39:07.700Z,99356.42
2019-03-22T03:40:10.557Z,99356.48
2019-03-22T03:41:13.432Z,99358.35
2019-03-22T03:42:16.365Z,99358.59
2019-03-22T03:43:20.415Z,99356.16
2019-03-22T03:44:23.704Z,99356.67
2019-03-22T03:45:26.548Z,99361.89
2019-03-22T03:46:29.408Z,99361.89
2019-03-22T03:47:32.277Z,99365.41
2019-03-22T03:48:35.500Z,99367.94
2019-03-22T03:49:38.306Z,99367.31
2019-03-22T03:50:41.157Z,99363.09
2019-03-22T03:51:44.131Z,99363.09
2019-03-22T03:52:47.370Z,99365.49
2019-03-22T03:53:50.827Z,99353.73
2019-03-22T03:54:53.622Z,99353.02
2019-03-22T03:55:56.496Z,99353.02
2019-03-22T03:56:59.315Z,99349.55
2019-03-22T03:58:02.226Z,99350.38
2019-03-22T03:59:05.315Z,99351.77
2019-03-22T04:00:08.134Z,99339.09
2019-03-22T04:01:11.040Z,99354.50
2019-03-22T04:02:13.869Z,99355.04
2019-03-22T04:03:16.731Z,99344.95
2019-03-22T04:04:19.560Z,99344.95
2019-03-22T04:05:22.667Z,99350.05
2019-03-22T04:06:25.481Z,99346.89
2019-03-22T04:07:28.371Z,99354.72
2019-03-22T04:08:31.173Z,99350.07
2019-03-22T04:09:34.516Z,99350.07
2019-03-22T04:10:37.832Z,99353.50
2019-03-22T04:11:41.476Z,99359.87
2019-03-22T04:12:44.348Z,99359.87
2019-03-22T04:13:47.141Z,99353.55
2019-03-22T04:14:49.968Z,99359.23
2019-03-22T04:15:53.246Z,99359.17
2019-03-22T04:16:56.456Z,99354.81
2019-03-22T04:18:01.144Z,99356.92
2019-03-22T04:19:03.963Z,99351.55
2019-03-22T04:20:06.770Z,99355.19
2019-03-22T04:21:12.141Z,99353.03
2019-03-22T04:22:16.101Z,99355.19
2019-03-22T04:23:19.716Z,99349.09
2019-03-22T04:24:22.979Z,99347.42
2019-03-22T04:25:26.080Z,99343.70
2019-03-22T04:26:28.877Z,99337.72
2019-03-22T04:27:31.708Z,99342.50
2019-03-22T04:28:38.563Z,99342.50
2019-03-22T04:29:41.691Z,99348.94
2019-03-22T04:30:44.486Z,99344.36
2019-03-22T04:31:47.285Z,99344.03
2019-03-22T04:32:50.139Z,99342.64
2019-03-22T04:33:53.938Z,99349.88
2019-03-22T04:34:56.772Z,99351.15
2019-03-22T04:35:59.837Z,99351.15
2019-03-22T04:37:02.643Z,99354.98
2019-03-22T04:38:09.063Z,99357.58
2019-03-22T04:39:14.270Z,99358.09
2019-03-22T04:40:16.760Z,99365.92
2019-03-22T04:41:23.933Z,99366.75
2019-03-22T04:42:29.777Z,99366.75
2019-03-22T04:43:32.948Z,99357.97
2019-03-22T04:44:35.775Z,99360.04
2019-03-22T04:45:39.081Z,99366.06
2019-03-22T04:46:41.897Z,99371.02
2019-03-22T04:47:46.135Z,99370.02
2019-03-22T04:48:49.025Z,99368.25
2019-03-22T04:49:51.807Z,99368.25
2019-03-22T04:50:54.693Z,99371.84
2019-03-22T04:51:57.870Z,99366.79
2019-03-22T04:53:00.672Z,99368.17
2019-03-22T04:54:03.798Z,99370.27
2019-03-22T04:55:06.647Z,99360.31
2019-03-22T04:56:09.552Z,99366.14
2019-03-22T04:57:12.396Z,99361.05
2019-03-22T04:58:15.178Z,99365.48
2019-03-22T04:59:19.405Z,99364.34
2019-03-22T05:00:22.844Z,99368.77
2019-03-22T05:01:25.730Z,99361.81
2019-03-22T05:02:28.551Z,99369.38
2019-03-22T05:03:31.357Z,99369.67
2019-03-22T05:04:34.179Z,99370.59
2019-03-22T05:05:37.443Z,99373.41
2019-03-22T05:06:40.556Z,99373.41
2019-03-22T05:07:43.365Z,99375.95
2019-03-22T05:08:46.621Z,99377.55
2019-03-22T05:09:49.456Z,99375.58
2019-03-22T05:10:52.420Z,99384.78
2019-03-22T05:11:55.276Z,99384.78
2019-03-22T05:12:59.698Z,99385.45
2019-03-22T05:14:02.542Z,99384.25
2019-03-22T05:15:05.352Z,99379.76
2019-03-22T05:16:08.265Z,99380.14
2019-03-22T05:17:11.464Z,99380.14
2019-03-22T05:18:14.288Z,99379.17
2019-03-22T05:19:17.514Z,99381.87
2019-03-22T05:20:20.804Z,99381.84
2019-03-22T05:21:23.653Z,99377.80
2019-03-22T05:22:26.490Z,99377.80
2019-03-22T05:23:30.421Z,99385.39
2019-03-22T05:24:33.378Z,99385.39
2019-03-22T05:25:36.881Z,99386.93
2019-03-22T05:26:39.816Z,99383.87
2019-03-22T05:27:42.818Z,99382.43
2019-03-22T05:28:45.623Z,99382.43
2019-03-22T05:29:49.885Z,99385.08
2019-03-22T05:30:52.758Z,99384.14
2019-03-22T05:31:55.867Z,99385.17
2019-03-22T05:32:58.705Z,99385.17
2019-03-22T05:34:01.533Z,99390.73
2019-03-22T05:35:04.400Z,99389.35
2019-03-22T05:36:07.259Z,99386.69
2019-03-22T05:37:13.420Z,99388.33
2019-03-22T05:38:15.787Z,99388.33
2019-03-22T05:39:18.638Z,99386.53
2019-03-22T05:40:21.490Z,99387.98
2019-03-22T05:41:24.315Z,99385.19
2019-03-22T05:42:27.167Z,99385.51
2019-03-22T05:43:30.806Z,99382.08
2019-03-22T05:44:33.606Z,99383.81
2019-03-22T05:45:36.512Z,99387.43
2019-03-22T05:46:39.398Z,99384.33
2019-03-22T05:47:42.227Z,99389.52
2019-03-22T05:48:45.416Z,99385.67
2019-03-22T05:49:48.222Z,99385.67
2019-03-22T05:50:53.164Z,99392.50
2019-03-22T05:51:55.977Z,99391.98
2019-03-22T05:52:58.818Z,99388.23
2019-03-22T05:54:02.071Z,99390.79
2019-03-22T05:55:04.916Z,99391.02
2019-03-22T05:56:07.846Z,99391.02
2019-03-22T05:57:13.770Z,99389.45
2019-03-22T05:58:15.125Z,99394.90
2019-03-22T05:59:17.980Z,99387.66
2019-03-22T06:00:20.880Z,99385.87
2019-03-22T06:01:27.751Z,99389.37
2019-03-22T06:02:30.600Z,99384.92
2019-03-22T06:03:33.938Z,99382.80
2019-03-22T06:04:36.776Z,99382.84
2019-03-22T06:05:39.623Z,99387.78
2019-03-22T06:06:42.526Z,99387.59
2019-03-22T06:07:46.024Z,99389.78
2019-03-22T06:08:50.297Z,99389.78
2019-03-22T06:09:53.247Z,99388.92
2019-03-22T06:10:56.066Z,99391.36
2019-03-22T06:11:58.960Z,99385.50
2019-03-22T06:13:01.857Z,99382.86
2019-03-22T06:14:05.038Z,99383.64
2019-03-22T06:15:07.870Z,99382.08
2019-03-22T06:16:10.711Z,99377.61
2019-03-22T06:17:13.633Z,99379.49
2019-03-22T06:18:16.495Z,99377.73
2019-03-22T06:19:19.387Z,99377.73
2019-03-22T06:20:22.497Z,99380.02
2019-03-22T06:21:25.342Z,99382.06
2019-03-22T06:22:28.429Z,99382.06
2019-03-22T06:23:31.476Z,99385.02
2019-03-22T06:24:34.307Z,99386.50
2019-03-22T06:25:37.585Z,99386.53
2019-03-22T06:26:40.662Z,99388.98
2019-03-22T06:27:43.928Z,99385.47
2019-03-22T06:28:46.752Z,99385.47
2019-03-22T06:29:54.384Z,99387.78
2019-03-22T06:43:51.782Z,99373.97
2019-03-22T06:44:54.960Z,99374.81
2019-03-22T06:45:57.847Z,99378.36
2019-03-22T06:47:00.673Z,99377.83
2019-03-22T06:48:03.532Z,99381.91
2019-03-22T06:49:08.031Z,99383.28
2019-03-22T06:50:10.843Z,99383.28
2019-03-22T06:51:13.727Z,99383.45
2019-03-22T06:52:17.866Z,99383.45
2019-03-22T06:53:22.943Z,99386.67
2019-03-22T06:54:31.403Z,99387.77
2019-03-22T06:55:30.798Z,99393.97
2019-03-22T06:56:34.203Z,99393.97
2019-03-22T06:57:39.936Z,99394.28
2019-03-22T06:58:43.223Z,99395.70
2019-03-22T06:59:46.060Z,99395.49
2019-03-22T07:00:49.422Z,99397.94
2019-03-22T07:01:54.764Z,99397.43
2019-03-22T07:02:58.028Z,99397.43
2019-03-22T07:04:01.816Z,99393.09
2019-03-22T07:05:04.675Z,99393.09
2019-03-22T07:06:07.892Z,99400.41
2019-03-22T07:07:11.196Z,99393.09
2019-03-22T07:08:14.161Z,99393.88
2019-03-22T07:09:17.072Z,99395.19
2019-03-22T07:10:20.605Z,99387.89
2019-03-22T07:11:23.589Z,99387.89
2019-03-22T07:12:26.427Z,99386.63
2019-03-22T07:13:29.560Z,99386.63
2019-03-22T07:14:32.443Z,99395.94
2019-03-22T07:15:35.265Z,99395.94
2019-03-22T07:16:40.669Z,99394.16
2019-03-22T07:17:43.951Z,99396.03
2019-03-22T07:18:46.786Z,99391.86
2019-03-22T07:19:54.924Z,99389.63
2019-03-22T07:20:57.562Z,99393.44
2019-03-22T07:22:00.483Z,99394.79
2019-03-22T07:23:10.369Z,99394.79
2019-03-22T07:24:13.120Z,99391.22
2019-03-22T07:25:19.399Z,99384.68
2019-03-22T07:26:22.498Z,99384.68
2019-03-22T07:27:25.409Z,99387.30
2019-03-22T07:28:28.304Z,99379.58
2019-03-22T07:29:31.144Z,99390.13
2019-03-22T07:30:37.788Z,99391.73
2019-03-22T07:31:40.635Z,99390.02
2019-03-22T07:32:44.008Z,99390.02
2019-03-22T07:33:50.285Z,99390.39
2019-03-22T07:34:53.124Z,99388.33
2019-03-22T07:35:55.971Z,99385.43
2019-03-22T07:36:59.099Z,99387.80
2019-03-22T07:38:02.417Z,99387.80
2019-03-22T07:39:06.081Z,99390.57
2019-03-22T07:40:10.583Z,99385.28
2019-03-22T07:41:16.259Z,99385.47
2019-03-22T07:42:21.665Z,99384.95
2019-03-22T07:43:24.550Z,99373.16
2019-03-22T07:44:27.411Z,99382.95
2019-03-22T07:45:32.818Z,99382.95
2019-03-22T07:46:35.800Z,99390.91
2019-03-22T07:47:40.269Z,99384.95
2019-03-22T07:48:45.041Z,99384.95
2019-03-22T07:49:51.379Z,99383.19
2019-03-22T07:50:54.233Z,99382.41
2019-03-22T07:51:57.409Z,99382.41
2019-03-22T07:53:02.500Z,99377.38
2019-03-22T07:54:06.039Z,99377.38
2019-03-22T07:55:18.253Z,99381.64
2019-03-22T07:56:27.072Z,99382.41
2019-03-22T07:57:33.479Z,99388.45
2019-03-22T07:58:37.344Z,99389.63
2019-03-22T07:59:40.225Z,99389.63
2019-03-22T08:00:43.567Z,99377.41
2019-03-22T08:01:51.164Z,99379.53
2019-03-22T08:02:58.472Z,99378.25
2019-03-22T08:04:09.970Z,99370.99
2019-03-22T08:05:14.385Z,99370.99
2019-03-22T08:06:25.085Z,99376.37
2019-03-22T08:07:30.187Z,99377.24
2019-03-22T08:08:35.725Z,99377.24
2019-03-22T08:09:40.314Z,99383.95
2019-03-22T08:10:43.596Z,99381.88
2019-03-22T08:11:46.495Z,99380.85
2019-03-22T08:12:49.586Z,99380.85
2019-03-22T08:13:52.446Z,99374.13
2019-03-22T08:14:58.276Z,99379.42
2019-03-22T08:16:01.168Z,99373.41
2019-03-22T08:17:04.659Z,99375.30
2019-03-22T08:18:07.672Z,99373.67
2019-03-22T08:19:10.605Z,99373.67
2019-03-22T08:20:13.532Z,99369.23
2019-03-22T08:21:16.451Z,99367.58
2019-03-22T08:22:21.954Z,99371.46
2019-03-22T08:23:25.203Z,99372.02
2019-03-22T08:24:28.188Z,99376.89
2019-03-22T08:25:32.439Z,99376.78
2019-03-22T08:26:35.587Z,99376.67
2019-03-22T08:27:38.501Z,99376.67
2019-03-22T08:28:41.355Z,99373.14
2019-03-22T08:29:44.707Z,99371.64
2019-03-22T08:30:54.759Z,99375.56
2019-03-22T08:31:58.709Z,99375.78
2019-03-22T08:33:01.727Z,99373.36
2019-03-22T08:34:05.193Z,99373.09
2019-03-22T08:35:11.010Z,99373.09
2019-03-22T08:36:15.027Z,99375.56
2019-03-22T08:37:20.799Z,99375.56
2019-03-22T08:38:24.180Z,99365.87
2019-03-22T08:39:28.690Z,99362.20
2019-03-22T08:40:32.799Z,99362.20
2019-03-22T08:41:36.226Z,99365.37
2019-03-22T08:42:44.430Z,99363.60
2019-03-22T08:43:48.937Z,99360.23
2019-03-22T08:44:55.749Z,99357.88
2019-03-22T08:45:58.867Z,99357.88
2019-03-22T08:47:09.130Z,99356.25
2019-03-22T08:48:07.765Z,99356.42
2019-03-22T08:49:11.470Z,99360.37
2019-03-22T08:50:14.714Z,99360.37
2019-03-22T08:51:18.188Z,99351.83
2019-03-22T08:52:21.391Z,99353.75
2019-03-22T08:53:24.589Z,99354.06
2019-03-22T08:54:32.456Z,99358.70
2019-03-22T08:55:36.592Z,99358.70
2019-03-22T08:56:39.776Z,99355.15
2019-03-22T08:57:42.907Z,99350.17
2019-03-22T08:58:49.064Z,99360.19
2019-03-22T08:59:51.873Z,99357.97
2019-03-22T09:00:57.717Z,99358.71
2019-03-22T09:02:01.615Z,99361.33
2019-03-22T09:03:06.938Z,99361.45
2019-03-22T09:04:09.797Z,99359.74
2019-03-22T09:05:12.771Z,99361.40
2019-03-22T09:06:15.652Z,99357.83
2019-03-22T09:07:18.683Z,99354.55
2019-03-22T09:08:24.944Z,99347.76
2019-03-22T09:09:40.725Z,99349.41
2019-03-22T09:10:34.114Z,99349.41
2019-03-22T09:11:37.054Z,99356.58
2019-03-22T09:12:40.154Z,99356.58
2019-03-22T09:13:44.342Z,99353.73
2019-03-22T09:14:49.963Z,99355.72
2019-03-22T09:15:53.005Z,99349.81
2019-03-22T09:16:56.630Z,99352.59
2019-03-22T09:17:59.716Z,99351.35
2019-03-22T09:19:04.264Z,99346.94
2019-03-22T09:20:07.524Z,99347.23
2019-03-22T09:21:10.984Z,99347.23
2019-03-22T09:22:13.961Z,99341.66
2019-03-22T09:23:23.184Z,99338.70
2019-03-22T09:24:38.311Z,99338.70
2019-03-22T09:25:32.699Z,99338.52
2019-03-22T09:26:47.155Z,99335.63
2019-03-22T09:27:41.118Z,99338.20
2019-03-22T09:28:51.766Z,99338.20
2019-03-22T09:29:54.694Z,99335.34
2019-03-22T09:31:09.851Z,99339.94
2019-03-22T09:32:02.584Z,99342.02
2019-03-22T09:33:06.228Z,99342.02
2019-03-22T09:34:09.223Z,99329.48
2019-03-22T09:35:12.205Z,99336.83
2019-03-22T09:36:17.304Z,99327.45
2019-03-22T09:37:20.192Z,99331.09
2019-03-22T09:38:28.441Z,99331.94
2019-03-22T09:39:30.101Z,99325.75
2019-03-22T09:40:35.909Z,99329.73
2019-03-22T09:41:40.053Z,99319.78
2019-03-22T09:42:47.942Z,99322.92
2019-03-22T09:43:50.039Z,99327.81
2019-03-22T09:44:53.722Z,99327.81
2019-03-22T09:46:07.031Z,99325.73
2019-03-22T09:47:09.952Z,99325.53
2019-03-22T09:48:12.905Z,99321.52
2019-03-22T09:49:17.461Z,99328.54
2019-03-22T09:50:29.757Z,99325.89
2019-03-22T09:51:32.580Z,99326.03
2019-03-22T09:52:36.424Z,99326.03
2019-03-22T09:53:41.966Z,99313.47
2019-03-22T09:54:44.818Z,99307.42
2019-03-22T09:55:47.821Z,99311.23
2019-03-22T09:56:51.019Z,99309.36
2019-03-22T09:57:53.903Z,99301.86
2019-03-22T09:58:56.769Z,99314.00
2019-03-22T10:00:01.687Z,99314.66
2019-03-22T10:01:06.022Z,99318.62
2019-03-22T10:02:12.033Z,99305.56
2019-03-22T10:03:15.341Z,99313.09
2019-03-22T10:04:18.266Z,99313.09
2019-03-22T10:05:22.971Z,99298.41
2019-03-22T10:06:25.921Z,99308.06
2019-03-22T10:07:28.996Z,99308.06
2019-03-22T10:08:32.391Z,99299.79
2019-03-22T10:09:35.460Z,99300.95
2019-03-22T10:10:38.422Z,99300.95
2019-03-22T10:11:41.680Z,99316.94
2019-03-22T10:12:46.972Z,99316.94
2019-03-22T10:13:50.271Z,99303.15
2019-03-22T10:14:53.617Z,99316.88
2019-03-22T10:16:00.215Z,99316.88
2019-03-22T10:17:03.820Z,99300.27
2019-03-22T10:18:07.627Z,99300.27
2019-03-22T10:19:12.262Z,99305.54
2019-03-22T10:20:18.581Z,99301.78
2019-03-22T10:21:22.638Z,99296.73
2019-03-22T10:22:27.901Z,99301.23
2019-03-22T10:23:32.680Z,99301.23
2019-03-22T10:24:35.564Z,99290.41
2019-03-22T10:25:41.388Z,99290.30
2019-03-22T10:26:44.730Z,99289.95
2019-03-22T10:27:48.937Z,99288.03
2019-03-22T10:28:52.920Z,99281.91
2019-03-22T10:29:55.804Z,99294.63
2019-03-22T10:30:58.701Z,99285.69
2019-03-22T10:32:01.651Z,99283.10
2019-03-22T10:33:04.859Z,99291.48
2019-03-22T10:34:07.827Z,99289.70
2019-03-22T10:35:11.135Z,99282.48
2019-03-22T10:36:14.608Z,99283.80
2019-03-22T10:37:20.276Z,99282.86
2019-03-22T10:38:31.134Z,99281.41
2019-03-22T10:39:28.130Z,99282.25
2019-03-22T10:40:32.432Z,99279.56
2019-03-22T10:41:38.389Z,99270.14
2019-03-22T10:42:41.235Z,99286.64
2019-03-22T10:43:44.105Z,99283.61
2019-03-22T10:44:51.900Z,99283.61
2019-03-22T10:45:54.754Z,99274.31
2019-03-22T10:46:57.709Z,99279.28
2019-03-22T10:48:11.069Z,99270.25
2019-03-22T10:49:05.807Z,99269.81
2019-03-22T10:50:08.762Z,99263.22
2019-03-22T10:51:11.931Z,99267.64
2019-03-22T10:52:14.861Z,99267.64
2019-03-22T10:53:17.887Z,99277.41
2019-03-22T10:54:20.697Z,99263.46
2019-03-22T10:55:30.295Z,99265.08
2019-03-22T10:56:28.614Z,99269.97
2019-03-22T10:57:31.829Z,99263.73
2019-03-22T10:58:35.078Z,99258.89
2019-03-22T10:59:40.139Z,99263.70
2019-03-22T11:00:44.125Z,99263.70
2019-03-22T11:02:02.296Z,99260.57
2019-03-22T11:02:51.780Z,99260.57
2019-03-22T11:03:55.081Z,99250.70
2019-03-22T11:04:59.071Z,99255.48
2019-03-22T11:06:01.950Z,99248.36
2019-03-22T11:07:04.752Z,99248.36
2019-03-22T11:08:07.607Z,99252.30
2019-03-22T11:09:10.507Z,99251.91
2019-03-22T11:10:14.217Z,99245.06
2019-03-22T11:11:17.124Z,99256.52
2019-03-22T11:12:20.454Z,99240.47
2019-03-22T11:13:23.374Z,99253.60
2019-03-22T11:14:26.345Z,99250.28
2019-03-22T11:15:29.462Z,99241.42
2019-03-22T11:16:32.700Z,99249.77
2019-03-22T11:17:35.562Z,99249.77
2019-03-22T11:18:39.468Z,99254.37
2019-03-22T11:19:42.352Z,99254.37
2019-03-22T11:20:45.882Z,99249.19
2019-03-22T11:21:53.901Z,99252.61
2019-03-22T11:23:01.253Z,99244.03
2019-03-22T11:24:04.342Z,99240.67
2019-03-22T11:25:07.189Z,99244.83
2019-03-22T11:26:12.333Z,99226.83
2019-03-22T11:27:15.070Z,99239.00
2019-03-22T11:28:17.970Z,99239.00
2019-03-22T11:29:23.906Z,99248.64
2019-03-22T11:42:51.849Z,99230.08
2019-03-22T11:43:56.910Z,99229.70
2019-03-22T11:45:00.270Z,99220.08
2019-03-22T11:46:03.197Z,99236.95
2019-03-22T11:47:06.003Z,99226.66
2019-03-22T11:48:09.518Z,99217.42
2019-03-22T11:49:12.506Z,99217.42
2019-03-22T11:50:15.212Z,99220.84
2019-03-22T11:51:28.838Z,99216.42
2019-03-22T11:52:34.065Z,99216.98
2019-03-22T11:53:37.037Z,99217.35
2019-03-22T11:54:41.126Z,99217.35
2019-03-22T11:55:43.991Z,99212.53
2019-03-22T11:56:46.726Z,99218.59
2019-03-22T11:57:49.898Z,99224.97
2019-03-22T11:58:53.935Z,99224.97
2019-03-22T11:59:56.852Z,99198.64
2019-03-22T12:00:59.973Z,99199.17
2019-03-22T12:02:02.816Z,99199.17
2019-03-22T12:03:05.498Z,99201.34
2019-03-22T12:04:09.236Z,99198.88
2019-03-22T12:05:12.179Z,99199.33
2019-03-22T12:06:15.041Z,99197.88
2019-03-22T12:07:20.176Z,99191.45
2019-03-22T12:08:23.206Z,99191.21
2019-03-22T12:09:26.620Z,99193.84
2019-03-22T12:10:29.417Z,99188.11
2019-03-22T12:11:35.004Z,99193.52
2019-03-22T12:12:38.091Z,99192.45
2019-03-22T12:13:44.535Z,99193.10
2019-03-22T12:14:49.104Z,99193.10
2019-03-22T12:15:53.822Z,99193.10
2019-03-22T12:16:56.844Z,99189.27
2019-03-22T12:17:59.761Z,99191.48
2019-03-22T12:19:02.660Z,99181.56
2019-03-22T12:20:06.786Z,99164.98
2019-03-22T12:21:09.920Z,99172.77
2019-03-22T12:22:13.252Z,99172.77
2019-03-22T12:23:16.607Z,99173.88
2019-03-22T12:24:21.165Z,99174.11
2019-03-22T12:25:23.984Z,99176.11
2019-03-22T12:26:27.101Z,99175.72
2019-03-22T12:27:36.772Z,99175.72
2019-03-22T12:28:40.303Z,99180.83
2019-03-22T12:29:43.077Z,99176.40
2019-03-22T12:30:45.960Z,99165.99
2019-03-22T12:31:51.180Z,99162.73
2019-03-22T12:32:54.279Z,99164.66
2019-03-22T12:33:58.963Z,99158.17
2019-03-22T12:35:01.707Z,99158.17
2019-03-22T12:36:09.901Z,99151.47
2019-03-22T12:37:13.073Z,99151.19
2019-03-22T12:38:16.179Z,99151.53
2019-03-22T12:39:19.426Z,99153.66
2019-03-22T12:40:22.904Z,99154.25
2019-03-22T12:41:27.760Z,99148.80
2019-03-22T12:42:30.864Z,99159.97
2019-03-22T12:43:34.875Z,99147.59
2019-03-22T12:44:38.658Z,99153.70
2019-03-22T12:45:45.909Z,99144.28
2019-03-22T12:46:49.312Z,99154.55
2019-03-22T12:47:52.193Z,99144.83
2019-03-22T12:48:55.088Z,99141.92
2019-03-22T12:49:57.919Z,99141.92
2019-03-22T12:51:00.645Z,99134.67
2019-03-22T12:52:03.725Z,99136.05